createdAt,value
2018-03-27T00:01:22.576Z,41.60
2018-03-27T00:03:50.069Z,41.60
2018-03-27T00:06:17.596Z,41.60
2018-03-27T00:08:45.103Z,41.60
2018-03-27T00:11:13.393Z,41.70
2018-03-27T00:13:40.888Z,41.70
2018-03-27T00:16:08.398Z,41.70
2018-03-27T00:18:36.736Z,41.70
2018-03-27T00:21:04.294Z,41.70
2018-03-27T00:23:31.835Z,41.70
2018-03-27T00:26:00.302Z,41.70
2018-03-27T00:28:39.752Z,42.40
2018-03-27T00:31:19.336Z,41.80
2018-03-27T00:33:59.472Z,41.80
2018-03-27T00:36:38.924Z,41.80
2018-03-27T00:39:19.205Z,41.70
2018-03-27T00:45:00.530Z,41.70
2018-03-27T00:47:28.062Z,41.80
2018-03-27T00:49:57.576Z,41.80
2018-03-27T00:52:31.019Z,41.80
2018-03-27T00:55:01.265Z,41.70
2018-03-27T00:57:29.586Z,41.80
2018-03-27T00:59:57.112Z,41.80
2018-03-27T01:02:24.639Z,41.70
2018-03-27T01:04:54.153Z,41.80
2018-03-27T01:07:22.469Z,41.80
2018-03-27T01:09:50.186Z,41.90
2018-03-27T01:12:18.546Z,41.80
2018-03-27T01:14:46.052Z,41.80
2018-03-27T01:17:13.546Z,41.80
2018-03-27T01:19:41.066Z,41.70
2018-03-27T01:22:08.575Z,41.80
2018-03-27T01:24:36.091Z,41.80
2018-03-27T01:27:03.612Z,41.90
2018-03-27T01:29:31.892Z,41.80
2018-03-27T01:32:00.157Z,41.90
2018-03-27T01:34:28.588Z,41.90
2018-03-27T01:36:56.110Z,41.90
2018-03-27T01:39:24.365Z,41.90
2018-03-27T01:41:51.892Z,41.90
2018-03-27T01:44:19.405Z,41.90
2018-03-27T01:46:46.924Z,41.90
2018-03-27T01:49:14.460Z,41.90
2018-03-27T01:51:41.929Z,41.80
2018-03-27T01:54:09.459Z,41.80
2018-03-27T01:56:36.953Z,41.90
2018-03-27T01:59:04.472Z,41.90
2018-03-27T02:01:31.977Z,41.90
2018-03-27T02:03:59.512Z,41.80
2018-03-27T02:06:27.017Z,42.00
2018-03-27T02:08:54.516Z,42.00
2018-03-27T02:11:27.848Z,42.00
2018-03-27T02:14:02.511Z,42.10
2018-03-27T02:16:35.604Z,42.00
2018-03-27T02:19:08.701Z,41.90
2018-03-27T02:21:36.680Z,41.90
2018-03-27T02:24:05.012Z,42.00
2018-03-27T02:26:32.593Z,42.00
2018-03-27T02:29:00.046Z,41.80
2018-03-27T02:31:27.569Z,41.80
2018-03-27T02:33:55.829Z,41.80
2018-03-27T02:36:23.322Z,41.80
2018-03-27T02:38:52.816Z,41.90
2018-03-27T02:41:21.077Z,41.80
2018-03-27T02:43:49.379Z,41.80
2018-03-27T02:46:16.888Z,41.80
2018-03-27T02:48:44.412Z,42.10
2018-03-27T02:51:11.911Z,42.00
2018-03-27T02:53:39.404Z,42.00
2018-03-27T02:56:06.919Z,41.90
2018-03-27T02:58:34.417Z,41.90
2018-03-27T03:01:01.944Z,41.80
2018-03-27T03:03:29.443Z,41.80
2018-03-27T03:05:57.941Z,41.80
2018-03-27T03:08:26.403Z,41.70
2018-03-27T03:10:53.896Z,41.80
2018-03-27T03:13:21.417Z,41.80
2018-03-27T03:15:48.928Z,41.80
2018-03-27T03:18:16.458Z,41.70
2018-03-27T03:20:43.955Z,42.20
2018-03-27T03:23:12.238Z,41.80
2018-03-27T03:25:40.528Z,41.80
2018-03-27T03:28:08.018Z,41.80
2018-03-27T03:30:37.496Z,41.80
2018-03-27T03:33:05.002Z,41.80
2018-03-27T03:35:35.278Z,41.80
2018-03-27T03:38:02.774Z,41.70
2018-03-27T03:40:31.108Z,41.90
2018-03-27T03:42:58.629Z,41.90
2018-03-27T03:45:26.888Z,41.90
2018-03-27T03:47:55.916Z,41.80
2018-03-27T03:50:23.405Z,41.80
2018-03-27T03:52:52.884Z,41.80
2018-03-27T03:55:20.382Z,41.80
2018-03-27T03:57:47.901Z,41.80
2018-03-27T04:00:15.392Z,41.80
2018-03-27T04:02:42.880Z,41.70
2018-03-27T04:05:10.389Z,41.70
2018-03-27T04:07:38.784Z,41.80
2018-03-27T04:10:06.293Z,41.60
2018-03-27T04:12:33.796Z,41.70
2018-03-27T04:15:01.311Z,41.70
2018-03-27T04:17:29.768Z,41.70
2018-03-27T04:19:58.057Z,41.70
2018-03-27T04:22:26.316Z,41.80
2018-03-27T04:24:54.591Z,41.70
2018-03-27T04:27:24.041Z,41.70
2018-03-27T04:29:53.499Z,41.70
2018-03-27T04:32:21.788Z,41.70
2018-03-27T04:34:49.283Z,41.70
2018-03-27T04:37:16.804Z,41.70
2018-03-27T04:39:45.060Z,41.70
2018-03-27T04:42:15.300Z,41.70
2018-03-27T04:44:42.792Z,41.70
2018-03-27T04:47:11.253Z,41.70
2018-03-27T04:49:39.728Z,41.70
2018-03-27T04:52:07.220Z,41.70
2018-03-27T04:54:36.693Z,41.70
2018-03-27T04:57:04.188Z,41.60
2018-03-27T04:59:31.701Z,41.70
2018-03-27T05:01:59.190Z,41.70
2018-03-27T05:04:26.714Z,41.60
2018-03-27T05:06:54.210Z,41.60
2018-03-27T05:09:21.701Z,41.60
2018-03-27T05:11:49.976Z,41.60
2018-03-27T05:14:18.233Z,41.60
2018-03-27T05:16:45.762Z,41.60
2018-03-27T05:19:13.277Z,41.50
2018-03-27T05:21:41.573Z,41.70
2018-03-27T05:24:09.072Z,41.70
2018-03-27T05:26:36.563Z,41.60
2018-03-27T05:29:04.857Z,41.60
2018-03-27T05:31:32.362Z,41.60
2018-03-27T05:33:59.867Z,41.60
2018-03-27T05:36:28.322Z,41.60
2018-03-27T05:38:56.608Z,41.60
2018-03-27T05:41:24.143Z,41.60
2018-03-27T05:43:52.437Z,41.60
2018-03-27T05:46:21.653Z,41.60
2018-03-27T05:48:49.158Z,41.60
2018-03-27T05:51:18.634Z,41.60
2018-03-27T05:53:46.132Z,41.60
2018-03-27T05:56:16.391Z,41.60
2018-03-27T05:58:43.888Z,41.60
2018-03-27T06:01:11.399Z,41.60
2018-03-27T06:03:38.909Z,41.60
2018-03-27T06:06:06.430Z,41.60
2018-03-27T06:08:33.926Z,41.60
2018-03-27T06:11:01.411Z,41.60
2018-03-27T06:13:31.676Z,41.70
2018-03-27T06:15:59.174Z,41.70
2018-03-27T06:18:27.460Z,42.40
2018-03-27T06:20:55.721Z,41.70
2018-03-27T06:23:24.737Z,41.70
2018-03-27T06:25:53.030Z,41.60
2018-03-27T06:28:22.504Z,41.60
2018-03-27T06:30:50.781Z,41.70
2018-03-27T06:33:18.320Z,41.70
2018-03-27T06:35:47.545Z,41.70
2018-03-27T06:38:15.078Z,41.70
2018-03-27T06:40:42.577Z,41.70
2018-03-27T06:43:10.072Z,41.70
2018-03-27T06:45:37.615Z,41.60
2018-03-27T06:48:06.060Z,41.80
2018-03-27T06:50:33.596Z,42.00
2018-03-27T06:53:01.084Z,41.90
2018-03-27T06:55:28.608Z,41.80
2018-03-27T06:57:56.100Z,41.70
2018-03-27T07:00:23.624Z,42.30
2018-03-27T07:02:52.063Z,41.70
2018-03-27T07:05:19.632Z,41.70
2018-03-27T07:07:47.116Z,41.70
2018-03-27T07:10:14.632Z,41.70
2018-03-27T07:12:42.143Z,41.70
2018-03-27T07:15:09.666Z,41.70
2018-03-27T07:17:38.692Z,41.70
2018-03-27T07:20:06.241Z,41.70
2018-03-27T07:22:35.248Z,41.70
2018-03-27T07:25:03.513Z,41.70
2018-03-27T07:27:31.798Z,41.70
2018-03-27T07:30:00.061Z,41.70
2018-03-27T07:32:29.342Z,41.70
2018-03-27T07:34:56.838Z,41.70
2018-03-27T07:37:24.333Z,41.70
2018-03-27T07:39:51.852Z,41.80
2018-03-27T07:42:19.372Z,41.70
2018-03-27T07:44:46.872Z,41.70
2018-03-27T07:47:14.380Z,41.70
2018-03-27T07:49:41.894Z,41.80
2018-03-27T07:52:09.390Z,41.80
2018-03-27T07:54:36.910Z,41.80
2018-03-27T07:57:04.409Z,41.80
2018-03-27T07:59:31.911Z,42.00
2018-03-27T08:02:01.432Z,42.70
2018-03-27T08:04:28.924Z,42.60
2018-03-27T08:06:56.438Z,42.10
2018-03-27T08:09:23.932Z,42.20
2018-03-27T08:11:51.458Z,42.20
2018-03-27T08:14:18.957Z,42.30
2018-03-27T08:16:46.495Z,42.20
2018-03-27T08:19:13.988Z,42.90
2018-03-27T08:21:42.276Z,42.20
2018-03-27T08:24:10.634Z,42.40
2018-03-27T08:26:39.717Z,42.30
2018-03-27T08:29:07.996Z,42.30
2018-03-27T08:31:35.484Z,42.40
2018-03-27T08:34:05.000Z,42.40
2018-03-27T08:36:32.500Z,42.70
2018-03-27T08:39:00.023Z,43.10
2018-03-27T08:41:27.524Z,43.00
2018-03-27T08:43:55.036Z,43.10
2018-03-27T08:46:22.538Z,42.90
2018-03-27T08:48:50.043Z,42.80
2018-03-27T08:51:17.560Z,42.80
2018-03-27T08:53:46.232Z,43.00
2018-03-27T08:56:13.744Z,43.00
2018-03-27T08:58:41.260Z,43.20
2018-03-27T09:01:08.752Z,43.20
2018-03-27T09:03:38.293Z,42.70
2018-03-27T09:06:05.789Z,43.10
2018-03-27T09:08:34.075Z,43.20
2018-03-27T09:11:02.365Z,43.30
2018-03-27T09:13:29.861Z,43.20
2018-03-27T09:15:57.420Z,43.00
2018-03-27T09:18:24.912Z,43.20
2018-03-27T09:20:53.210Z,42.90
2018-03-27T09:23:20.737Z,42.90
2018-03-27T09:25:48.235Z,42.90
2018-03-27T09:28:15.768Z,42.80
2018-03-27T09:30:44.021Z,42.70
2018-03-27T09:33:11.519Z,42.70
2018-03-27T09:35:39.078Z,42.80
2018-03-27T09:38:06.571Z,42.70
2018-03-27T09:40:36.404Z,42.80
2018-03-27T09:43:04.881Z,42.70
2018-03-27T09:45:33.292Z,42.70
2018-03-27T09:48:00.705Z,42.70
2018-03-27T09:50:28.217Z,42.60
2018-03-27T09:52:55.709Z,42.60
2018-03-27T09:55:23.205Z,42.60
2018-03-27T09:57:51.500Z,42.70
2018-03-27T10:00:24.619Z,42.70
2018-03-27T10:02:52.156Z,42.60
2018-03-27T10:05:19.653Z,42.60
2018-03-27T10:07:47.937Z,42.70
2018-03-27T10:10:15.455Z,42.70
2018-03-27T10:12:42.961Z,42.50
2018-03-27T10:15:10.453Z,42.60
2018-03-27T10:17:39.969Z,42.50
2018-03-27T10:20:07.456Z,42.50
2018-03-27T10:22:34.969Z,42.40
2018-03-27T10:25:02.470Z,42.50
2018-03-27T10:27:31.525Z,42.50
2018-03-27T10:29:59.045Z,42.40
2018-03-27T10:32:28.268Z,42.50
2018-03-27T10:34:55.792Z,42.50
2018-03-27T10:37:23.290Z,42.40
2018-03-27T10:39:50.807Z,43.20
2018-03-27T10:42:18.329Z,42.60
2018-03-27T10:44:46.783Z,42.40
2018-03-27T10:47:14.277Z,42.60
2018-03-27T10:49:41.800Z,42.60
2018-03-27T10:52:09.322Z,42.60
2018-03-27T10:54:37.609Z,42.90
2018-03-27T10:57:06.819Z,42.60
2018-03-27T10:59:34.324Z,42.70
2018-03-27T11:02:01.840Z,42.70
2018-03-27T11:04:29.337Z,42.50
2018-03-27T11:06:57.167Z,42.60
2018-03-27T11:09:25.496Z,42.50
2018-03-27T11:11:53.004Z,42.50
2018-03-27T11:14:20.528Z,42.60
2018-03-27T11:16:48.789Z,42.50
2018-03-27T11:19:17.181Z,42.40
2018-03-27T11:21:45.466Z,42.40
2018-03-27T11:24:12.960Z,42.40
2018-03-27T11:26:40.476Z,42.40
2018-03-27T11:29:08.011Z,42.40
2018-03-27T11:31:35.523Z,42.40
2018-03-27T11:34:03.027Z,43.10
2018-03-27T11:36:32.492Z,42.40
2018-03-27T11:39:00.059Z,42.40
2018-03-27T11:41:28.309Z,42.40
2018-03-27T11:43:55.830Z,42.30
2018-03-27T11:46:25.026Z,42.40
2018-03-27T11:48:53.302Z,42.30
2018-03-27T11:51:21.572Z,42.40
2018-03-27T11:53:49.855Z,42.30
2018-03-27T11:56:18.133Z,42.30
2018-03-27T11:58:47.656Z,42.30
2018-03-27T12:01:15.152Z,42.30
2018-03-27T12:03:42.689Z,42.30
2018-03-27T12:06:11.149Z,42.30
2018-03-27T12:08:38.654Z,42.20
2018-03-27T12:11:06.160Z,42.30
2018-03-27T12:13:33.674Z,42.30
2018-03-27T12:16:02.960Z,42.30
2018-03-27T12:18:30.451Z,42.30
2018-03-27T12:20:59.650Z,42.30
2018-03-27T12:23:27.988Z,42.20
2018-03-27T12:25:55.481Z,42.20
2018-03-27T12:28:23.767Z,42.20
2018-03-27T12:30:52.024Z,42.10
2018-03-27T12:33:19.535Z,42.10
2018-03-27T12:35:47.366Z,42.20
2018-03-27T12:38:14.860Z,42.10
2018-03-27T12:40:43.204Z,42.10
2018-03-27T12:43:12.666Z,42.20
2018-03-27T12:45:43.624Z,42.20
2018-03-27T12:48:11.881Z,42.20
2018-03-27T12:50:40.304Z,42.10
2018-03-27T12:53:07.809Z,42.10
2018-03-27T12:55:35.464Z,42.10
2018-03-27T12:58:03.108Z,42.20
2018-03-27T13:00:30.652Z,42.20
2018-03-27T13:02:59.115Z,42.20
2018-03-27T13:05:26.617Z,42.20
2018-03-27T13:07:54.143Z,42.20
2018-03-27T13:10:21.642Z,42.20
2018-03-27T13:12:49.161Z,42.10
2018-03-27T13:15:16.678Z,42.10
2018-03-27T13:17:45.003Z,42.20
2018-03-27T13:20:12.487Z,42.20
2018-03-27T13:22:40.009Z,42.30
2018-03-27T13:25:07.505Z,42.40
2018-03-27T13:27:38.496Z,42.40
2018-03-27T13:30:06.013Z,42.40
2018-03-27T13:32:34.308Z,42.00
2018-03-27T13:35:02.560Z,42.50
2018-03-27T13:37:30.061Z,42.50
2018-03-27T13:39:57.588Z,42.50
2018-03-27T13:42:25.872Z,42.60
2018-03-27T13:44:53.432Z,42.50
2018-03-27T13:47:22.590Z,42.50
2018-03-27T13:49:50.081Z,42.60
2018-03-27T13:52:18.397Z,42.40
2018-03-27T13:54:46.812Z,42.40
2018-03-27T13:57:15.139Z,42.30
2018-03-27T13:59:42.661Z,42.20
2018-03-27T14:02:10.944Z,42.50
2018-03-27T14:04:39.301Z,42.50
2018-03-27T14:07:06.792Z,42.40
2018-03-27T14:09:34.300Z,42.40
2018-03-27T14:12:04.556Z,42.30
2018-03-27T14:14:32.841Z,42.40
2018-03-27T14:17:00.337Z,42.40
2018-03-27T14:19:27.839Z,42.40
2018-03-27T14:21:56.119Z,42.30
2018-03-27T14:24:24.401Z,42.40
2018-03-27T14:26:53.893Z,42.40
2018-03-27T14:29:21.460Z,42.30
2018-03-27T14:31:50.985Z,42.30
2018-03-27T14:34:18.492Z,42.40
2018-03-27T14:36:46.778Z,42.60
2018-03-27T14:39:15.061Z,42.60
2018-03-27T14:41:43.678Z,42.40
2018-03-27T14:44:11.218Z,42.40
2018-03-27T14:46:38.749Z,42.30
2018-03-27T14:49:07.042Z,42.40
2018-03-27T14:51:34.561Z,42.20
2018-03-27T14:54:02.840Z,42.20
2018-03-27T14:56:31.104Z,42.20
2018-03-27T14:58:58.623Z,42.30
2018-03-27T15:01:26.362Z,42.30
2018-03-27T15:03:53.974Z,42.20
2018-03-27T15:06:21.474Z,42.30
2018-03-27T15:08:49.272Z,42.20
2018-03-27T15:11:16.905Z,42.20
2018-03-27T15:13:44.757Z,42.20
2018-03-27T15:16:13.278Z,42.20
2018-03-27T15:18:42.126Z,42.20
2018-03-27T15:21:10.067Z,42.20
2018-03-27T15:23:38.622Z,42.20
2018-03-27T15:26:06.628Z,42.20
2018-03-27T15:28:35.010Z,42.20
2018-03-27T15:31:02.855Z,42.20
2018-03-27T15:33:31.248Z,42.20
2018-03-27T15:35:58.917Z,42.10
2018-03-27T15:38:27.317Z,42.20
2018-03-27T15:40:55.237Z,42.20
2018-03-27T15:43:24.548Z,42.10
2018-03-27T15:45:53.025Z,42.20
2018-03-27T15:48:22.388Z,42.20
2018-03-27T15:50:50.356Z,42.20
2018-03-27T15:53:18.222Z,42.20
2018-03-27T15:55:46.036Z,42.20
2018-03-27T15:58:14.593Z,42.20
2018-03-27T16:00:43.303Z,42.20
2018-03-27T16:03:12.242Z,42.20
2018-03-27T16:05:40.108Z,42.10
2018-03-27T16:08:08.678Z,42.20
2018-03-27T16:10:36.243Z,42.30
2018-03-27T16:13:03.754Z,42.30
2018-03-27T16:15:32.963Z,42.40
2018-03-27T16:18:01.276Z,42.40
2018-03-27T16:20:29.650Z,42.40
2018-03-27T16:22:57.179Z,42.40
2018-03-27T16:25:25.436Z,42.40
2018-03-27T16:27:52.952Z,42.40
2018-03-27T16:30:20.444Z,42.40
2018-03-27T16:32:47.968Z,42.40
2018-03-27T16:35:15.465Z,42.40
2018-03-27T16:37:43.016Z,42.30
2018-03-27T16:40:13.949Z,42.40
2018-03-27T16:42:41.470Z,42.30
2018-03-27T16:45:09.021Z,42.30
2018-03-27T16:47:37.445Z,42.30
2018-03-27T16:50:04.957Z,42.30
2018-03-27T16:52:33.443Z,42.30
2018-03-27T16:55:00.971Z,42.20
2018-03-27T16:57:29.274Z,42.30
2018-03-27T16:59:56.788Z,42.30
2018-03-27T17:02:24.285Z,42.20
2018-03-27T17:04:51.793Z,42.20
2018-03-27T17:07:19.305Z,42.20
2018-03-27T17:09:46.837Z,42.20
2018-03-27T17:12:15.121Z,42.20
2018-03-27T17:14:42.616Z,42.20
2018-03-27T17:17:10.156Z,42.20
2018-03-27T17:19:37.679Z,42.20
2018-03-27T17:22:05.948Z,42.30
2018-03-27T17:24:34.244Z,42.30
2018-03-27T17:27:01.766Z,42.30
2018-03-27T17:29:31.007Z,42.30
2018-03-27T17:31:58.509Z,42.20
2018-03-27T17:34:26.006Z,42.30
2018-03-27T17:36:53.525Z,42.30
2018-03-27T17:39:21.036Z,42.30
2018-03-27T17:41:48.561Z,42.30
2018-03-27T17:44:16.843Z,42.30
2018-03-27T17:46:45.116Z,42.30
2018-03-27T17:49:13.397Z,42.30
2018-03-27T17:51:41.668Z,42.30
2018-03-27T17:54:09.927Z,42.20
2018-03-27T17:56:37.442Z,42.20
2018-03-27T17:59:04.947Z,42.20
2018-03-27T18:01:33.264Z,42.20
2018-03-27T18:04:00.773Z,42.20
2018-03-27T18:06:28.283Z,42.20
2018-03-27T18:08:55.797Z,42.50
2018-03-27T18:11:24.076Z,42.10
2018-03-27T18:13:54.345Z,42.10
2018-03-27T18:16:21.838Z,42.20
2018-03-27T18:18:49.354Z,42.20
2018-03-27T18:21:16.876Z,42.20
2018-03-27T18:23:45.166Z,42.20
2018-03-27T18:26:12.661Z,42.20
2018-03-27T18:28:40.179Z,42.20
2018-03-27T18:31:07.738Z,42.10
2018-03-27T18:33:35.244Z,42.20
2018-03-27T18:36:04.720Z,42.30
2018-03-27T18:38:32.215Z,42.20
2018-03-27T18:41:00.794Z,42.30
2018-03-27T18:43:29.198Z,42.30
2018-03-27T18:45:56.779Z,42.30
2018-03-27T18:48:24.310Z,42.30
2018-03-27T18:50:52.661Z,42.50
2018-03-27T18:53:20.449Z,42.50
2018-03-27T18:55:48.736Z,42.40
2018-03-27T18:58:16.262Z,42.40
2018-03-27T19:00:45.614Z,42.40
2018-03-27T19:03:13.135Z,42.40
2018-03-27T19:05:41.407Z,42.30
2018-03-27T19:08:09.707Z,43.20
2018-03-27T19:10:37.280Z,42.40
2018-03-27T19:13:04.778Z,42.40
2018-03-27T19:15:32.294Z,42.50
2018-03-27T19:17:59.813Z,42.60
2018-03-27T19:20:28.077Z,42.50
2018-03-27T19:22:55.585Z,42.50
2018-03-27T19:25:23.100Z,42.40
2018-03-27T19:27:51.389Z,42.40
2018-03-27T19:30:19.677Z,42.30
2018-03-27T19:32:47.185Z,42.30
2018-03-27T19:35:15.184Z,42.30
2018-03-27T19:37:43.468Z,42.30
2018-03-27T19:40:11.159Z,42.30
2018-03-27T19:42:39.951Z,42.20
2018-03-27T19:45:07.509Z,42.40
2018-03-27T19:47:35.031Z,42.50
2018-03-27T19:50:03.296Z,42.60
2018-03-27T19:52:31.585Z,42.60
2018-03-27T19:54:59.865Z,42.50
2018-03-27T19:57:27.379Z,42.50
2018-03-27T19:59:54.879Z,42.50
2018-03-27T20:02:22.448Z,42.40
2018-03-27T20:04:50.133Z,42.40
2018-03-27T20:07:17.652Z,42.30
2018-03-27T20:09:45.172Z,42.40
2018-03-27T20:12:12.757Z,42.50
2018-03-27T20:14:41.997Z,42.80
2018-03-27T20:17:09.484Z,42.80
2018-03-27T20:19:38.513Z,42.80
2018-03-27T20:22:06.772Z,42.80
2018-03-27T20:24:35.060Z,42.90
2018-03-27T20:27:03.384Z,43.00
2018-03-27T20:29:31.741Z,42.90
2018-03-27T20:31:59.250Z,42.90
2018-03-27T20:34:26.751Z,42.70
2018-03-27T20:36:54.276Z,42.70
2018-03-27T20:39:22.555Z,42.80
2018-03-27T20:41:52.806Z,43.00
2018-03-27T20:44:20.304Z,43.00
2018-03-27T20:46:47.833Z,43.00
2018-03-27T20:49:15.363Z,43.00
2018-03-27T20:51:42.884Z,43.20
2018-03-27T20:54:11.152Z,43.20
2018-03-27T20:56:38.676Z,43.20
2018-03-27T20:59:06.165Z,44.00
2018-03-27T21:01:34.439Z,43.20
2018-03-27T21:04:03.486Z,43.20
2018-03-27T21:06:31.014Z,43.20
2018-03-27T21:08:59.307Z,43.40
2018-03-27T21:11:26.873Z,43.40
2018-03-27T21:13:54.410Z,43.40
2018-03-27T21:16:23.677Z,43.40
2018-03-27T21:18:51.180Z,43.40
2018-03-27T21:21:18.749Z,43.30
2018-03-27T21:23:46.276Z,43.50
2018-03-27T21:26:14.573Z,43.60
2018-03-27T21:28:42.084Z,43.60
2018-03-27T21:31:09.597Z,43.60
2018-03-27T21:33:37.097Z,43.50
2018-03-27T21:36:04.618Z,43.80
2018-03-27T21:38:32.137Z,43.70
2018-03-27T21:41:00.393Z,43.70
2018-03-27T21:43:28.681Z,43.50
2018-03-27T21:45:56.972Z,44.10
2018-03-27T21:48:25.241Z,43.50
2018-03-27T21:50:53.503Z,43.70
2018-03-27T21:53:23.762Z,43.60
2018-03-27T21:55:51.252Z,43.60
2018-03-27T21:58:18.781Z,43.30
2018-03-27T22:00:46.270Z,43.50
2018-03-27T22:03:13.789Z,43.20
2018-03-27T22:05:41.300Z,43.30
2018-03-27T22:08:10.365Z,43.60
2018-03-27T22:10:37.903Z,43.60
2018-03-27T22:13:05.400Z,43.40
2018-03-27T22:15:33.856Z,43.40
2018-03-27T22:18:01.373Z,43.30
2018-03-27T22:20:29.658Z,43.20
2018-03-27T22:22:57.177Z,43.20
2018-03-27T22:25:26.529Z,43.20
2018-03-27T22:27:54.045Z,43.20
2018-03-27T22:30:23.523Z,43.10
2018-03-27T22:32:51.028Z,43.10
2018-03-27T22:35:18.550Z,43.00
2018-03-27T22:37:46.993Z,42.90
2018-03-27T22:40:16.028Z,43.00
2018-03-27T22:42:44.313Z,42.90
2018-03-27T22:45:13.522Z,42.80
2018-03-27T22:47:41.046Z,42.80
2018-03-27T22:50:09.530Z,42.90
2018-03-27T22:52:37.884Z,42.90
2018-03-27T22:55:06.751Z,42.80
2018-03-27T22:57:34.341Z,42.90
2018-03-27T23:00:03.199Z,42.90
2018-03-27T23:02:30.816Z,42.90
2018-03-27T23:04:58.524Z,42.80
2018-03-27T23:07:26.053Z,42.80
2018-03-27T23:09:54.352Z,42.80
2018-03-27T23:12:21.876Z,42.80
2018-03-27T23:14:50.161Z,42.80
2018-03-27T23:17:19.360Z,42.70
2018-03-27T23:19:47.112Z,42.70
2018-03-27T23:22:26.492Z,42.80
2018-03-27T23:24:54.550Z,42.70
2018-03-27T23:27:22.102Z,42.70
2018-03-27T23:29:49.631Z,42.80
2018-03-27T23:32:17.954Z,42.80
2018-03-27T23:34:45.875Z,42.80
2018-03-27T23:37:13.619Z,42.70
2018-03-27T23:39:42.263Z,42.80
2018-03-27T23:42:10.134Z,42.70
2018-03-27T23:44:38.827Z,42.60
2018-03-27T23:47:06.354Z,42.60
2018-03-27T23:49:33.900Z,42.60
2018-03-27T23:52:02.253Z,42.60
2018-03-27T23:54:29.980Z,42.60
2018-03-27T23:56:57.696Z,42.60
2018-03-27T23:59:25.486Z,42.60
